createdAt,value
2022-07-29T00:00:17.096Z,3.55
2022-07-29T00:01:20.239Z,2.92
2022-07-29T00:02:22.296Z,2.75
2022-07-29T00:03:25.553Z,3.20
2022-07-29T00:04:27.721Z,3.47
2022-07-29T00:05:30.947Z,2.97
2022-07-29T00:06:32.937Z,2.90
2022-07-29T00:07:35.942Z,3.42
2022-07-29T00:08:39.369Z,3.28
2022-07-29T00:09:51.167Z,2.65
2022-07-29T00:10:54.546Z,3.20
2022-07-29T00:12:02.099Z,3.13
2022-07-29T00:13:04.161Z,2.45
2022-07-29T00:14:07.401Z,3.00
2022-07-29T00:15:09.958Z,3.47
2022-07-29T00:16:12.954Z,2.63
2022-07-29T00:17:15.014Z,3.22
2022-07-29T00:18:22.542Z,2.88
2022-07-29T00:19:24.618Z,3.40
2022-07-29T00:20:28.412Z,2.85
2022-07-29T00:21:30.523Z,2.92
2022-07-29T00:22:36.728Z,2.75
2022-07-29T00:23:40.127Z,3.20
2022-07-29T00:24:43.357Z,2.75
2022-07-29T00:25:45.336Z,2.70
2022-07-29T00:26:48.600Z,2.90
2022-07-29T00:27:50.564Z,3.10
2022-07-29T00:29:17.217Z,3.15
2022-07-29T00:30:16.154Z,3.35
2022-07-29T00:31:19.200Z,3.08
2022-07-29T00:32:21.220Z,3.00
2022-07-29T00:33:24.512Z,2.40
2022-07-29T00:34:44.879Z,3.22
2022-07-29T00:35:47.242Z,3.13
2022-07-29T00:36:49.230Z,3.10
2022-07-29T00:37:53.594Z,2.90
2022-07-29T00:38:56.950Z,3.10
2022-07-29T00:39:59.945Z,2.65
2022-07-29T00:41:02.323Z,2.70
2022-07-29T00:42:05.914Z,3.28
2022-07-29T00:43:09.718Z,2.75
2022-07-29T00:44:11.785Z,2.92
2022-07-29T00:45:15.617Z,2.92
2022-07-29T00:46:18.677Z,3.58
2022-07-29T00:47:20.829Z,3.17
2022-07-29T00:48:23.873Z,3.15
2022-07-29T00:49:25.904Z,3.28
2022-07-29T00:50:29.141Z,2.75
2022-07-29T00:51:32.786Z,3.42
2022-07-29T00:52:39.577Z,2.90
2022-07-29T00:53:42.722Z,2.85
2022-07-29T00:55:08.055Z,3.05
2022-07-29T00:56:11.626Z,3.00
2022-07-29T00:57:13.903Z,3.03
2022-07-29T00:58:16.996Z,3.05
2022-07-29T00:59:19.446Z,3.03
2022-07-29T01:01:50.831Z,2.88
2022-07-29T01:02:53.666Z,2.65
2022-07-29T01:03:56.807Z,3.60
2022-07-29T01:04:59.039Z,2.85
2022-07-29T01:06:02.489Z,2.63
2022-07-29T01:07:05.785Z,2.83
2022-07-29T01:08:09.136Z,2.42
2022-07-29T01:09:11.960Z,3.50
2022-07-29T01:10:18.101Z,2.92
2022-07-29T01:11:21.093Z,2.70
2022-07-29T01:12:27.113Z,3.20
2022-07-29T01:13:30.607Z,3.03
2022-07-29T01:14:33.914Z,2.70
2022-07-29T01:15:49.216Z,2.97
2022-07-29T01:17:02.629Z,2.75
2022-07-29T01:18:10.393Z,2.65
2022-07-29T01:19:34.278Z,3.05
2022-07-29T01:20:53.490Z,3.20
2022-07-29T01:22:01.032Z,2.92
2022-07-29T01:23:15.649Z,3.50
2022-07-29T01:24:38.651Z,2.70
2022-07-29T01:26:06.011Z,3.35
2022-07-29T01:27:23.853Z,3.20
2022-07-29T01:28:54.094Z,2.85
2022-07-29T01:29:59.750Z,3.40
2022-07-29T01:31:07.009Z,3.72
2022-07-29T01:32:18.053Z,2.80
2022-07-29T01:33:51.641Z,3.28
2022-07-29T01:34:58.907Z,3.10
2022-07-29T01:36:07.528Z,2.80
2022-07-29T01:37:21.977Z,3.25
2022-07-29T01:38:29.142Z,2.92
2022-07-29T01:39:36.019Z,3.20
2022-07-29T01:40:44.190Z,2.95
2022-07-29T01:41:53.119Z,2.88
2022-07-29T01:42:59.019Z,3.38
2022-07-29T01:44:08.687Z,3.60
2022-07-29T01:45:16.467Z,3.38
2022-07-29T01:46:26.382Z,2.83
2022-07-29T01:47:35.929Z,3.10
2022-07-29T01:48:42.315Z,3.28
2022-07-29T01:49:51.018Z,3.42
2022-07-29T01:50:59.584Z,2.97
2022-07-29T01:52:06.684Z,3.50
2022-07-29T01:53:14.656Z,3.20
2022-07-29T01:54:27.581Z,3.30
2022-07-29T01:55:34.004Z,3.30
2022-07-29T01:56:37.481Z,3.47
2022-07-29T01:57:44.177Z,3.38
2022-07-29T01:58:48.291Z,3.63
2022-07-29T01:59:54.658Z,3.78
2022-07-29T02:00:58.461Z,3.67
2022-07-29T02:02:03.635Z,3.28
2022-07-29T02:03:09.888Z,4.07
2022-07-29T02:04:29.586Z,2.88
2022-07-29T02:05:33.662Z,3.28
2022-07-29T02:06:39.701Z,3.03
2022-07-29T02:07:44.201Z,2.75
2022-07-29T02:08:48.841Z,2.50
2022-07-29T02:09:51.961Z,3.90
2022-07-29T02:10:57.049Z,3.20
2022-07-29T02:12:02.285Z,3.15
2022-07-29T02:13:07.794Z,3.35
2022-07-29T02:14:11.763Z,3.35
2022-07-29T02:15:18.478Z,3.50
2022-07-29T02:16:23.744Z,2.72
2022-07-29T02:17:33.230Z,3.58
2022-07-29T02:18:38.245Z,2.63
2022-07-29T02:19:43.039Z,2.97
2022-07-29T02:20:47.962Z,2.95
2022-07-29T02:21:53.386Z,2.95
2022-07-29T02:22:56.690Z,2.47
2022-07-29T02:24:03.231Z,3.72
2022-07-29T02:25:06.939Z,3.03
2022-07-29T02:26:18.997Z,3.20
2022-07-29T02:27:24.762Z,3.33
2022-07-29T02:28:30.567Z,2.78
2022-07-29T02:29:37.131Z,3.03
2022-07-29T02:30:44.656Z,3.13
2022-07-29T02:31:50.021Z,2.95
2022-07-29T02:32:53.031Z,3.60
2022-07-29T02:33:56.742Z,3.13
2022-07-29T02:35:00.511Z,3.20
2022-07-29T02:36:04.875Z,3.15
2022-07-29T02:37:09.111Z,3.10
2022-07-29T02:38:48.409Z,3.22
2022-07-29T02:39:55.778Z,2.80
2022-07-29T02:40:59.746Z,3.05
2022-07-29T02:42:07.866Z,3.00
2022-07-29T02:43:11.940Z,3.40
2022-07-29T02:44:17.845Z,2.75
2022-07-29T02:45:20.758Z,4.05
2022-07-29T02:46:31.455Z,3.10
2022-07-29T02:47:41.437Z,3.13
2022-07-29T02:48:52.220Z,3.05
2022-07-29T02:50:00.629Z,3.70
2022-07-29T02:51:08.299Z,2.90
2022-07-29T02:52:20.315Z,2.63
2022-07-29T02:53:26.236Z,2.83
2022-07-29T02:54:35.847Z,3.08
2022-07-29T02:55:41.799Z,3.20
2022-07-29T02:56:46.367Z,2.92
2022-07-29T02:57:55.488Z,3.05
2022-07-29T02:59:01.645Z,2.78
2022-07-29T03:00:08.136Z,3.50
2022-07-29T03:01:19.433Z,3.35
2022-07-29T03:02:26.681Z,3.10
2022-07-29T03:03:32.857Z,2.75
2022-07-29T03:04:37.488Z,2.92
2022-07-29T03:05:40.870Z,3.42
2022-07-29T03:06:45.270Z,3.35
2022-07-29T03:07:52.304Z,2.72
2022-07-29T03:08:56.853Z,2.97
2022-07-29T03:10:01.103Z,2.97
2022-07-29T03:11:04.671Z,3.08
2022-07-29T03:12:08.525Z,3.08
2022-07-29T03:13:11.246Z,3.10
2022-07-29T03:14:15.407Z,3.50
2022-07-29T03:15:18.141Z,2.80
2022-07-29T03:16:22.016Z,3.30
2022-07-29T03:17:26.486Z,2.80
2022-07-29T03:18:29.539Z,2.92
2022-07-29T03:19:33.922Z,2.85
2022-07-29T03:20:36.162Z,2.97
2022-07-29T03:21:39.143Z,3.20
2022-07-29T03:22:44.755Z,2.95
2022-07-29T03:23:46.870Z,3.10
2022-07-29T03:24:49.895Z,3.45
2022-07-29T03:25:52.565Z,3.28
2022-07-29T03:26:57.089Z,3.30
2022-07-29T03:27:59.079Z,3.35
2022-07-29T03:29:02.206Z,2.90
2022-07-29T03:30:06.314Z,3.35
2022-07-29T03:31:12.177Z,2.80
2022-07-29T03:32:14.855Z,3.22
2022-07-29T03:33:29.895Z,2.70
2022-07-29T03:34:32.919Z,3.08
2022-07-29T03:35:34.950Z,3.40
2022-07-29T03:36:37.951Z,2.70
2022-07-29T03:37:40.030Z,3.00
2022-07-29T03:38:46.162Z,3.00
2022-07-29T03:39:50.208Z,3.35
2022-07-29T03:40:57.410Z,3.10
2022-07-29T03:42:01.848Z,3.10
2022-07-29T03:43:05.835Z,2.90
2022-07-29T03:44:08.787Z,2.63
2022-07-29T03:45:15.805Z,2.80
2022-07-29T03:46:18.901Z,3.17
2022-07-29T03:47:43.528Z,2.90
2022-07-29T03:48:57.368Z,2.35
2022-07-29T03:50:04.082Z,2.80
2022-07-29T03:51:06.521Z,2.80
2022-07-29T03:52:10.942Z,2.63
2022-07-29T03:53:13.416Z,2.65
2022-07-29T03:54:16.831Z,3.55
2022-07-29T03:55:19.234Z,2.58
2022-07-29T03:56:24.231Z,3.30
2022-07-29T03:57:29.042Z,2.95
2022-07-29T03:58:33.485Z,3.45
2022-07-29T03:59:36.778Z,2.65
2022-07-29T04:00:40.643Z,2.53
2022-07-29T04:01:43.617Z,2.58
2022-07-29T04:02:49.371Z,2.75
2022-07-29T04:03:53.419Z,3.38
2022-07-29T04:04:56.463Z,2.65
2022-07-29T04:06:03.897Z,2.80
2022-07-29T04:07:07.163Z,3.60
2022-07-29T04:08:09.209Z,2.78
2022-07-29T04:09:13.074Z,3.70
2022-07-29T04:10:16.598Z,2.80
2022-07-29T04:11:19.827Z,3.15
2022-07-29T04:12:23.177Z,3.45
2022-07-29T04:13:25.218Z,3.83
2022-07-29T04:14:28.200Z,2.70
2022-07-29T04:15:31.409Z,3.00
2022-07-29T04:16:34.961Z,3.08
2022-07-29T04:17:37.043Z,3.13
2022-07-29T04:18:40.045Z,4.03
2022-07-29T04:19:43.445Z,2.65
2022-07-29T04:20:46.760Z,3.20
2022-07-29T04:21:48.794Z,3.42
2022-07-29T04:22:51.766Z,2.55
2022-07-29T04:23:54.012Z,2.95
2022-07-29T04:25:03.246Z,3.05
2022-07-29T04:26:05.908Z,2.88
2022-07-29T04:27:09.115Z,2.40
2022-07-29T04:28:11.618Z,3.28
2022-07-29T04:29:15.266Z,2.55
2022-07-29T04:30:17.397Z,2.95
2022-07-29T04:31:25.508Z,3.45
2022-07-29T04:32:27.966Z,3.08
2022-07-29T04:33:30.929Z,3.20
2022-07-29T04:34:33.960Z,2.90
2022-07-29T04:35:38.992Z,2.55
2022-07-29T04:36:53.134Z,2.58
2022-07-29T04:37:55.183Z,2.72
2022-07-29T04:38:58.562Z,3.42
2022-07-29T04:40:00.552Z,2.78
2022-07-29T04:41:03.616Z,3.00
2022-07-29T04:42:06.083Z,3.05
2022-07-29T04:43:12.565Z,2.80
2022-07-29T04:44:16.634Z,3.53
2022-07-29T04:45:22.682Z,3.78
2022-07-29T04:46:24.894Z,3.10
2022-07-29T04:47:27.906Z,2.20
2022-07-29T04:48:29.973Z,3.20
2022-07-29T04:49:33.180Z,3.17
2022-07-29T04:50:36.324Z,2.80
2022-07-29T04:51:40.719Z,3.00
2022-07-29T04:52:42.758Z,3.22
2022-07-29T04:53:46.615Z,3.55
2022-07-29T04:54:48.801Z,2.50
2022-07-29T04:55:52.079Z,3.28
2022-07-29T04:56:54.038Z,3.00
2022-07-29T04:57:57.014Z,2.72
2022-07-29T04:59:00.745Z,2.80
2022-07-29T05:00:04.715Z,3.20
2022-07-29T05:01:07.853Z,2.55
2022-07-29T05:02:09.896Z,3.15
2022-07-29T05:03:13.108Z,2.70
2022-07-29T05:04:15.350Z,3.40
2022-07-29T05:05:18.779Z,2.55
2022-07-29T05:06:20.766Z,3.15
2022-07-29T05:07:25.125Z,2.70
2022-07-29T05:08:27.120Z,2.70
2022-07-29T05:09:30.086Z,2.97
2022-07-29T05:10:32.141Z,2.72
2022-07-29T05:11:35.118Z,2.53
2022-07-29T05:12:37.082Z,2.50
2022-07-29T05:13:45.916Z,2.83
2022-07-29T05:14:49.058Z,2.67
2022-07-29T05:15:52.362Z,3.15
2022-07-29T05:16:57.589Z,2.65
2022-07-29T05:18:00.834Z,2.70
2022-07-29T05:19:02.914Z,2.65
2022-07-29T05:20:07.038Z,2.70
2022-07-29T05:21:09.078Z,3.03
2022-07-29T05:22:12.092Z,2.70
2022-07-29T05:23:16.598Z,3.17
2022-07-29T05:24:19.143Z,3.30
2022-07-29T05:25:22.693Z,2.70
2022-07-29T05:26:25.832Z,3.30
2022-07-29T05:27:27.817Z,2.75
2022-07-29T05:28:30.991Z,2.60
2022-07-29T05:29:45.042Z,2.70
2022-07-29T05:30:47.718Z,2.72
2022-07-29T05:31:51.981Z,2.83
2022-07-29T05:32:54.961Z,3.00
2022-07-29T05:33:56.946Z,3.00
2022-07-29T05:34:59.911Z,2.40
2022-07-29T05:36:05.982Z,2.67
2022-07-29T05:37:09.681Z,3.08
2022-07-29T05:38:12.670Z,2.80
2022-07-29T05:39:16.080Z,3.33
2022-07-29T05:40:22.354Z,3.17
2022-07-29T05:41:24.369Z,2.60
2022-07-29T05:42:27.666Z,3.40
2022-07-29T05:43:29.918Z,3.20
2022-07-29T05:44:32.918Z,2.95
2022-07-29T05:45:35.051Z,3.20
2022-07-29T05:46:52.398Z,2.83
2022-07-29T05:47:54.350Z,3.00
2022-07-29T05:48:57.416Z,2.60
2022-07-29T05:49:59.627Z,2.67
2022-07-29T05:51:03.043Z,2.88
2022-07-29T05:52:05.863Z,3.55
2022-07-29T05:53:20.112Z,2.20
2022-07-29T05:54:23.846Z,2.80
2022-07-29T05:55:27.327Z,2.65
2022-07-29T05:56:29.313Z,2.40
2022-07-29T05:57:32.564Z,2.72
2022-07-29T05:58:34.564Z,2.83
2022-07-29T05:59:38.579Z,2.55
2022-07-29T06:00:41.025Z,2.75
2022-07-29T06:01:44.130Z,2.40
2022-07-29T06:02:46.200Z,2.50
2022-07-29T06:03:49.191Z,2.90
2022-07-29T06:04:51.253Z,3.50
2022-07-29T06:05:54.246Z,2.90
2022-07-29T06:06:56.255Z,2.92
2022-07-29T06:07:59.340Z,2.92
2022-07-29T06:09:12.611Z,3.20
2022-07-29T06:10:17.895Z,2.67
2022-07-29T06:11:19.887Z,3.22
2022-07-29T06:12:22.854Z,2.75
2022-07-29T06:13:24.858Z,3.13
2022-07-29T06:14:29.244Z,2.60
2022-07-29T06:15:31.332Z,2.95
2022-07-29T06:16:34.386Z,3.35
2022-07-29T06:17:36.461Z,3.40
2022-07-29T06:18:39.579Z,2.88
2022-07-29T06:19:41.567Z,3.15
2022-07-29T06:20:44.732Z,3.28
2022-07-29T06:21:47.646Z,2.45
2022-07-29T06:22:50.627Z,3.10
2022-07-29T06:23:53.149Z,2.95
2022-07-29T06:24:56.126Z,2.95
2022-07-29T06:26:00.654Z,3.30
2022-07-29T06:27:02.634Z,2.92
2022-07-29T06:28:06.004Z,3.15
2022-07-29T06:29:08.505Z,2.85
2022-07-29T06:30:12.102Z,3.17
2022-07-29T06:31:15.203Z,2.00
2022-07-29T06:32:17.271Z,2.58
2022-07-29T06:33:20.762Z,3.30
2022-07-29T06:34:23.083Z,3.33
2022-07-29T06:35:38.656Z,2.90
2022-07-29T06:36:45.268Z,2.65
2022-07-29T06:37:48.057Z,2.53
2022-07-29T06:38:52.231Z,2.78
2022-07-29T06:40:18.054Z,3.08
2022-07-29T06:41:23.689Z,2.70
2022-07-29T06:42:25.971Z,3.00
2022-07-29T06:43:32.375Z,2.40
2022-07-29T06:44:35.838Z,2.90
2022-07-29T06:45:39.478Z,3.42
2022-07-29T06:46:42.935Z,2.65
2022-07-29T06:47:45.309Z,2.78
2022-07-29T06:48:50.309Z,2.78
2022-07-29T06:49:52.362Z,2.70
2022-07-29T06:50:55.772Z,3.17
2022-07-29T06:51:58.802Z,2.80
2022-07-29T06:53:00.826Z,2.78
2022-07-29T06:54:06.398Z,2.58
2022-07-29T06:55:09.383Z,3.13
2022-07-29T06:56:14.805Z,3.08
2022-07-29T06:57:19.203Z,2.70
2022-07-29T06:58:21.625Z,2.90
2022-07-29T06:59:33.424Z,2.45
2022-07-29T07:00:37.613Z,3.15
2022-07-29T07:01:41.960Z,2.80
2022-07-29T07:02:44.169Z,4.45
2022-07-29T07:03:47.259Z,2.70
2022-07-29T07:04:49.399Z,3.03
2022-07-29T07:05:54.796Z,2.70
2022-07-29T07:06:57.765Z,2.80
2022-07-29T07:07:59.862Z,2.70
2022-07-29T07:09:03.042Z,2.92
2022-07-29T07:10:06.125Z,2.72
2022-07-29T07:11:09.106Z,3.17
2022-07-29T07:12:11.149Z,2.97
2022-07-29T07:13:18.109Z,2.97
2022-07-29T07:14:21.640Z,2.25
2022-07-29T07:15:25.245Z,2.65
2022-07-29T07:16:42.678Z,2.80
2022-07-29T07:17:44.710Z,2.45
2022-07-29T07:18:47.819Z,3.00
2022-07-29T07:19:49.791Z,3.03
2022-07-29T07:20:52.819Z,3.13
2022-07-29T07:21:54.895Z,3.25
2022-07-29T07:22:58.684Z,3.42
2022-07-29T07:24:01.483Z,2.92
2022-07-29T07:25:05.059Z,2.88
2022-07-29T07:26:07.046Z,3.08
2022-07-29T07:27:10.036Z,2.58
2022-07-29T07:28:12.153Z,2.70
2022-07-29T07:29:16.767Z,3.13
2022-07-29T07:30:18.799Z,3.10
2022-07-29T07:31:22.070Z,3.45
2022-07-29T07:32:24.205Z,3.40
2022-07-29T07:33:27.213Z,3.10
2022-07-29T07:34:30.999Z,2.83
2022-07-29T07:35:34.463Z,3.05
2022-07-29T07:36:36.460Z,3.28
2022-07-29T07:37:41.342Z,3.30
2022-07-29T07:38:43.400Z,3.10
2022-07-29T07:39:46.390Z,3.80
2022-07-29T07:40:48.412Z,3.13
2022-07-29T07:41:51.402Z,3.10
2022-07-29T07:42:54.399Z,2.75
2022-07-29T07:43:56.487Z,3.55
2022-07-29T07:45:13.379Z,2.92
2022-07-29T07:46:17.133Z,2.95
2022-07-29T07:47:20.838Z,2.70
2022-07-29T07:48:25.276Z,2.47
2022-07-29T07:49:27.386Z,3.78
2022-07-29T07:50:30.434Z,2.90
2022-07-29T07:51:32.620Z,2.80
2022-07-29T07:52:35.631Z,3.28
2022-07-29T07:53:38.639Z,3.05
2022-07-29T07:54:40.620Z,3.20
2022-07-29T07:57:07.697Z,3.40
2022-07-29T07:58:11.183Z,2.70
2022-07-29T07:59:13.143Z,2.78
2022-07-29T08:00:18.809Z,2.70
2022-07-29T08:01:24.000Z,3.10
2022-07-29T08:02:26.091Z,3.38
2022-07-29T08:03:29.286Z,3.08
2022-07-29T08:04:32.346Z,3.90
2022-07-29T08:05:35.350Z,2.88
2022-07-29T08:06:41.462Z,3.70
2022-07-29T08:07:44.898Z,3.28
2022-07-29T08:08:46.977Z,4.38
2022-07-29T08:09:50.170Z,3.42
2022-07-29T08:10:56.286Z,3.50
2022-07-29T08:12:00.088Z,2.58
2022-07-29T08:13:03.612Z,3.85
2022-07-29T08:14:06.622Z,3.28
2022-07-29T08:15:10.815Z,3.42
2022-07-29T08:16:15.933Z,2.92
2022-07-29T08:17:19.233Z,3.28
2022-07-29T08:18:21.245Z,3.22
2022-07-29T08:19:24.338Z,3.28
2022-07-29T08:20:26.566Z,3.13
2022-07-29T08:21:29.525Z,3.58
2022-07-29T08:22:32.025Z,3.70
2022-07-29T08:23:46.473Z,3.05
2022-07-29T08:24:55.697Z,3.63
2022-07-29T08:25:58.807Z,3.10
2022-07-29T08:27:00.826Z,2.60
2022-07-29T08:28:03.911Z,3.40
2022-07-29T08:29:06.853Z,3.30
2022-07-29T08:30:11.254Z,3.05
2022-07-29T08:31:15.622Z,3.20
2022-07-29T08:32:31.125Z,3.22
2022-07-29T08:33:41.630Z,3.70
2022-07-29T08:34:47.074Z,3.20
2022-07-29T08:35:50.907Z,3.40
2022-07-29T08:36:53.946Z,3.30
2022-07-29T08:37:57.765Z,2.85
2022-07-29T08:39:01.113Z,3.15
2022-07-29T08:40:03.852Z,3.10
2022-07-29T08:41:07.085Z,3.20
2022-07-29T08:42:10.544Z,3.25
2022-07-29T08:43:12.569Z,2.80
2022-07-29T08:44:17.258Z,2.95
2022-07-29T08:45:27.115Z,3.53
2022-07-29T08:46:30.582Z,2.58
2022-07-29T08:47:33.841Z,3.50
2022-07-29T08:48:38.126Z,2.92
2022-07-29T08:49:40.196Z,3.33
2022-07-29T08:50:46.296Z,3.10
2022-07-29T08:51:49.671Z,3.15
2022-07-29T08:52:57.910Z,3.10
2022-07-29T08:54:03.210Z,2.95
2022-07-29T08:55:06.510Z,3.25
2022-07-29T08:56:13.099Z,2.60
2022-07-29T08:57:16.362Z,3.00
2022-07-29T08:58:22.901Z,2.75
2022-07-29T08:59:29.781Z,3.08
2022-07-29T09:00:34.243Z,3.30
2022-07-29T09:01:42.503Z,3.60
2022-07-29T09:02:53.188Z,3.30
2022-07-29T09:03:57.108Z,3.58
2022-07-29T09:05:03.565Z,3.17
2022-07-29T09:06:06.582Z,2.97
2022-07-29T09:07:11.002Z,2.90
2022-07-29T09:08:13.833Z,3.15
2022-07-29T09:09:17.081Z,3.53
2022-07-29T09:10:19.398Z,2.53
2022-07-29T09:11:22.642Z,3.20
2022-07-29T09:12:29.545Z,3.35
2022-07-29T09:13:33.526Z,3.22
2022-07-29T09:14:36.706Z,3.70
2022-07-29T09:15:38.754Z,3.30
2022-07-29T09:16:53.870Z,3.50
2022-07-29T09:17:57.477Z,3.10
2022-07-29T09:19:00.486Z,3.38
2022-07-29T09:20:10.748Z,3.13
2022-07-29T09:21:33.003Z,2.95
2022-07-29T09:22:41.452Z,3.50
2022-07-29T09:24:01.154Z,3.47
2022-07-29T09:25:04.206Z,3.55
2022-07-29T09:26:06.987Z,3.55
2022-07-29T09:27:24.216Z,3.13
2022-07-29T09:28:26.516Z,2.70
2022-07-29T09:29:32.184Z,3.10
2022-07-29T09:30:52.001Z,3.95
2022-07-29T09:31:56.151Z,2.97
2022-07-29T09:33:02.138Z,3.30
2022-07-29T09:34:05.146Z,3.35
2022-07-29T09:35:21.816Z,4.30
2022-07-29T09:36:23.867Z,3.70
2022-07-29T09:37:30.349Z,3.83
2022-07-29T09:38:32.742Z,3.15
2022-07-29T09:39:38.935Z,3.35
2022-07-29T09:40:41.434Z,3.15
2022-07-29T09:41:49.086Z,3.08
2022-07-29T09:42:53.797Z,3.42
2022-07-29T09:43:57.220Z,3.47
2022-07-29T09:45:00.410Z,4.28
2022-07-29T09:46:12.532Z,2.90
2022-07-29T09:47:18.055Z,3.47
2022-07-29T09:48:22.405Z,4.00
2022-07-29T09:49:25.557Z,4.03
2022-07-29T09:50:39.894Z,3.38
2022-07-29T09:51:42.386Z,3.70
2022-07-29T09:52:50.170Z,3.75
2022-07-29T09:53:52.889Z,3.83
2022-07-29T09:55:07.031Z,3.30
2022-07-29T09:56:09.258Z,3.75
2022-07-29T09:57:30.023Z,3.72
2022-07-29T09:58:34.609Z,4.55
2022-07-29T09:59:36.690Z,4.10
2022-07-29T10:00:55.759Z,3.40
2022-07-29T10:01:58.793Z,3.47
2022-07-29T10:03:03.760Z,4.65
2022-07-29T10:04:06.066Z,4.70
2022-07-29T10:05:19.330Z,4.15
2022-07-29T10:06:21.475Z,4.30
2022-07-29T10:07:24.810Z,4.32
2022-07-29T10:08:27.431Z,3.90
2022-07-29T10:09:30.750Z,3.65
2022-07-29T10:10:34.714Z,4.15
2022-07-29T10:11:49.094Z,4.40
2022-07-29T10:13:06.961Z,4.57
2022-07-29T10:14:10.871Z,4.22
2022-07-29T10:15:13.893Z,3.60
2022-07-29T10:16:17.227Z,4.05
2022-07-29T10:17:21.190Z,4.10
2022-07-29T10:18:24.666Z,3.47
2022-07-29T10:19:27.938Z,3.72
2022-07-29T10:20:30.977Z,3.58
2022-07-29T10:21:35.167Z,3.42
2022-07-29T10:22:55.199Z,3.25
2022-07-29T10:24:01.501Z,3.40
2022-07-29T10:25:05.165Z,3.33
2022-07-29T10:26:08.599Z,3.17
2022-07-29T10:27:11.735Z,3.15
2022-07-29T10:28:16.839Z,3.55
2022-07-29T10:29:18.984Z,3.05
2022-07-29T10:30:25.963Z,3.25
2022-07-29T10:31:36.080Z,3.08
2022-07-29T10:32:54.416Z,3.00
2022-07-29T10:34:05.021Z,4.00
2022-07-29T10:35:22.549Z,3.10
2022-07-29T10:36:37.847Z,2.92
2022-07-29T10:37:57.785Z,3.20
2022-07-29T10:39:15.570Z,2.97
2022-07-29T10:40:45.656Z,3.17
2022-07-29T10:42:04.041Z,2.80
2022-07-29T10:43:18.675Z,3.28
2022-07-29T10:44:24.764Z,2.72
2022-07-29T10:45:27.632Z,2.67
2022-07-29T10:46:36.683Z,2.75
2022-07-29T10:47:39.837Z,2.60
2022-07-29T10:49:08.675Z,3.13
2022-07-29T10:50:17.165Z,2.55
2022-07-29T10:51:19.646Z,2.40
2022-07-29T10:52:26.623Z,2.45
2022-07-29T10:53:47.933Z,3.05
2022-07-29T10:54:53.538Z,2.60
2022-07-29T10:55:56.529Z,2.90
2022-07-29T10:57:16.785Z,3.00
2022-07-29T10:58:21.408Z,2.45
2022-07-29T10:59:36.085Z,3.10
2022-07-29T11:00:39.600Z,2.75
2022-07-29T11:01:46.421Z,2.65
2022-07-29T11:02:56.156Z,2.22
2022-07-29T11:03:59.916Z,3.15
2022-07-29T11:05:04.873Z,2.33
2022-07-29T11:06:08.734Z,2.78
2022-07-29T11:07:11.128Z,2.75
2022-07-29T11:08:28.116Z,2.63
2022-07-29T11:09:37.810Z,2.53
2022-07-29T11:10:41.911Z,2.80
2022-07-29T11:11:51.556Z,2.30
2022-07-29T11:12:53.839Z,2.33
2022-07-29T11:13:57.243Z,2.85
2022-07-29T11:15:00.183Z,2.40
2022-07-29T11:16:03.542Z,2.25
2022-07-29T11:17:07.182Z,2.10
2022-07-29T11:18:15.158Z,2.60
2022-07-29T11:19:29.959Z,2.70
2022-07-29T11:20:37.992Z,2.35
2022-07-29T11:23:20.697Z,2.50
2022-07-29T11:24:29.963Z,2.30
2022-07-29T11:25:42.902Z,2.42
2022-07-29T11:27:09.454Z,2.13
2022-07-29T11:29:49.859Z,2.75
2022-07-29T11:30:53.398Z,2.63
2022-07-29T11:32:18.221Z,2.55
2022-07-29T11:33:54.413Z,2.55
2022-07-29T11:35:19.007Z,2.45
2022-07-29T11:36:28.136Z,2.38
2022-07-29T11:37:31.802Z,2.45
2022-07-29T11:38:33.983Z,2.58
2022-07-29T11:39:38.156Z,2.33
2022-07-29T11:40:42.640Z,2.70
2022-07-29T11:41:44.654Z,2.60
2022-07-29T11:42:51.833Z,2.20
2022-07-29T11:43:56.246Z,2.70
2022-07-29T11:45:00.059Z,2.60
2022-07-29T11:46:12.224Z,2.67
2022-07-29T11:47:21.207Z,2.75
2022-07-29T11:48:31.518Z,2.33
2022-07-29T11:49:34.596Z,2.25
2022-07-29T11:50:44.318Z,2.40
2022-07-29T11:51:52.770Z,2.40
2022-07-29T11:52:56.359Z,2.58
2022-07-29T11:54:04.111Z,2.70
2022-07-29T11:55:09.976Z,2.30
2022-07-29T11:56:17.153Z,2.50
2022-07-29T11:57:20.776Z,2.13
2022-07-29T11:58:26.011Z,2.13
2022-07-29T11:59:33.529Z,2.30
2022-07-29T12:00:40.706Z,2.80
2022-07-29T12:02:06.697Z,2.60
2022-07-29T12:03:35.179Z,2.40
2022-07-29T12:04:52.424Z,2.35
2022-07-29T12:05:55.961Z,2.00
2022-07-29T12:07:01.387Z,2.60
2022-07-29T12:07:04.787Z,2.10
2022-07-29T12:08:12.449Z,2.05
2022-07-29T12:09:18.635Z,2.25
2022-07-29T12:10:29.824Z,2.22
2022-07-29T12:11:33.943Z,1.75
2022-07-29T12:12:36.722Z,2.15
2022-07-29T12:13:41.250Z,2.50
2022-07-29T12:14:46.563Z,1.92
2022-07-29T12:15:57.778Z,2.30
2022-07-29T12:17:02.284Z,2.55
2022-07-29T12:18:18.979Z,2.30
2022-07-29T12:19:21.334Z,2.53
2022-07-29T12:20:27.606Z,2.17
2022-07-29T12:21:30.264Z,1.50
2022-07-29T12:22:38.131Z,1.70
2022-07-29T12:23:55.211Z,2.65
2022-07-29T12:25:23.310Z,2.08
2022-07-29T12:26:25.835Z,2.28
2022-07-29T12:27:29.296Z,1.90
2022-07-29T12:28:38.690Z,2.55
2022-07-29T12:29:45.047Z,2.60
2022-07-29T12:30:53.129Z,1.80
2022-07-29T12:31:57.800Z,2.30
2022-07-29T12:33:01.336Z,2.65
2022-07-29T12:34:04.530Z,2.08
2022-07-29T12:35:08.768Z,2.42
2022-07-29T12:36:17.411Z,2.28
2022-07-29T12:37:19.922Z,2.53
2022-07-29T12:38:36.194Z,2.30
2022-07-29T12:39:38.368Z,1.80
2022-07-29T12:40:41.521Z,2.60
2022-07-29T12:41:44.123Z,2.33
2022-07-29T12:43:10.164Z,2.47
2022-07-29T12:44:13.761Z,2.30
2022-07-29T12:45:17.477Z,2.47
2022-07-29T12:46:20.524Z,2.20
2022-07-29T12:47:22.884Z,2.80
2022-07-29T12:48:35.949Z,2.80
2022-07-29T12:49:38.362Z,2.05
2022-07-29T12:50:58.991Z,1.80
2022-07-29T12:52:02.287Z,2.30
2022-07-29T12:53:14.427Z,2.30
2022-07-29T12:54:18.814Z,1.90
2022-07-29T12:55:43.313Z,2.47
2022-07-29T12:56:47.226Z,2.30
2022-07-29T12:57:51.602Z,2.00
2022-07-29T12:58:54.907Z,2.00
2022-07-29T13:00:05.264Z,1.92
2022-07-29T13:01:17.210Z,2.50
2022-07-29T13:02:24.144Z,1.73
2022-07-29T13:03:26.234Z,2.38
2022-07-29T13:04:32.202Z,2.20
2022-07-29T13:05:45.682Z,2.33
2022-07-29T13:07:01.500Z,2.80
2022-07-29T13:08:20.441Z,2.80
2022-07-29T13:09:38.811Z,2.13
2022-07-29T13:10:41.520Z,2.40
2022-07-29T13:11:48.633Z,1.85
2022-07-29T13:13:05.256Z,2.30
2022-07-29T13:14:10.120Z,2.63
2022-07-29T13:15:16.094Z,2.38
2022-07-29T13:16:19.909Z,2.05
2022-07-29T13:17:24.843Z,2.45
2022-07-29T13:18:31.040Z,2.75
2022-07-29T13:19:38.965Z,2.50
2022-07-29T13:20:41.026Z,2.50
2022-07-29T13:21:44.006Z,2.17
2022-07-29T13:22:49.479Z,1.67
2022-07-29T13:23:52.493Z,2.15
2022-07-29T13:24:57.982Z,2.20
2022-07-29T13:26:07.826Z,1.83
2022-07-29T13:27:09.926Z,2.42
2022-07-29T13:28:12.945Z,2.28
2022-07-29T13:29:15.101Z,2.10
2022-07-29T13:30:18.393Z,2.05
2022-07-29T13:31:20.382Z,2.25
2022-07-29T13:32:28.450Z,2.67
2022-07-29T13:33:31.325Z,2.53
2022-07-29T13:34:34.379Z,2.28
2022-07-29T13:35:39.996Z,2.30
2022-07-29T13:36:42.294Z,1.92
2022-07-29T13:37:45.726Z,2.35
2022-07-29T13:38:47.770Z,2.35
2022-07-29T13:39:53.177Z,2.25
2022-07-29T13:40:57.901Z,2.67
2022-07-29T13:42:00.593Z,2.13
2022-07-29T13:43:03.847Z,2.30
2022-07-29T13:44:06.161Z,2.05
2022-07-29T13:45:11.655Z,2.08
2022-07-29T13:46:14.703Z,2.30
2022-07-29T13:47:17.149Z,2.00
2022-07-29T13:48:20.174Z,2.38
2022-07-29T13:49:23.419Z,2.20
2022-07-29T13:50:26.484Z,2.40
2022-07-29T13:51:28.537Z,2.47
2022-07-29T13:52:31.715Z,2.10
2022-07-29T13:53:33.722Z,2.00
2022-07-29T13:54:42.100Z,2.25
2022-07-29T13:55:45.453Z,2.47
2022-07-29T13:56:48.858Z,2.28
2022-07-29T13:57:51.869Z,2.28
2022-07-29T13:58:53.853Z,2.05
2022-07-29T13:59:57.230Z,2.17
2022-07-29T14:00:59.312Z,1.77
2022-07-29T14:02:02.407Z,1.73
2022-07-29T14:03:04.477Z,2.00
2022-07-29T14:04:07.591Z,2.40
2022-07-29T14:05:11.011Z,2.03
2022-07-29T14:06:14.304Z,2.13
2022-07-29T14:07:16.654Z,2.17
2022-07-29T14:08:20.182Z,2.10
2022-07-29T14:09:22.277Z,2.05
2022-07-29T14:10:25.263Z,1.73
2022-07-29T14:11:27.355Z,1.90
2022-07-29T14:12:31.712Z,2.20
2022-07-29T14:13:33.717Z,2.00
2022-07-29T14:14:37.600Z,1.98
2022-07-29T14:15:40.209Z,1.88
2022-07-29T14:16:47.783Z,2.00
2022-07-29T14:17:54.982Z,2.10
2022-07-29T14:18:56.993Z,1.80
2022-07-29T14:20:00.011Z,1.77
2022-07-29T14:21:02.041Z,1.85
2022-07-29T14:22:05.473Z,2.20
2022-07-29T14:23:10.337Z,1.90
2022-07-29T14:24:16.264Z,2.15
2022-07-29T14:25:24.498Z,2.03
2022-07-29T14:26:28.130Z,1.63
2022-07-29T14:27:38.074Z,1.70
2022-07-29T14:28:42.130Z,1.77
2022-07-29T14:29:44.134Z,1.75
2022-07-29T14:30:47.374Z,1.90
2022-07-29T14:31:49.424Z,1.70
2022-07-29T14:32:52.414Z,1.98
2022-07-29T14:33:54.434Z,1.85
2022-07-29T14:34:57.361Z,1.92
2022-07-29T14:36:01.338Z,1.58
2022-07-29T14:37:06.035Z,1.70
2022-07-29T14:38:09.314Z,1.85
2022-07-29T14:39:11.446Z,1.83
2022-07-29T14:40:14.642Z,1.60